createdAt,value
2023-02-19T00:04:59.742Z,89.42
2023-02-19T00:10:02.118Z,89.09
2023-02-19T00:15:09.326Z,88.41
2023-02-19T00:20:11.787Z,87.92
2023-02-19T00:25:14.418Z,88.12
2023-02-19T00:30:19.691Z,88.08
2023-02-19T00:35:25.057Z,88.32
2023-02-19T00:40:27.465Z,88.58
2023-02-19T00:45:29.734Z,88.83
2023-02-19T00:50:31.751Z,88.85
2023-02-19T00:55:33.854Z,88.66
2023-02-19T01:00:35.903Z,89.00
2023-02-19T01:05:38.041Z,88.81
2023-02-19T01:10:40.582Z,88.73
2023-02-19T01:15:43.897Z,88.78
2023-02-19T01:20:48.822Z,89.67
2023-02-19T01:25:51.753Z,89.89
2023-02-19T01:30:53.978Z,89.41
2023-02-19T01:35:59.930Z,89.10
2023-02-19T01:41:05.135Z,88.98
2023-02-19T01:46:07.262Z,89.38
2023-02-19T01:51:13.045Z,89.35
2023-02-19T01:56:17.426Z,89.12
2023-02-19T02:01:19.729Z,89.45
2023-02-19T02:06:33.232Z,89.61
2023-02-19T02:11:36.619Z,89.63
2023-02-19T02:16:54.949Z,89.86
2023-02-19T02:22:06.705Z,89.82
2023-02-19T02:27:23.117Z,89.78
2023-02-19T02:32:33.214Z,90.08
2023-02-19T02:37:39.011Z,90.33
2023-02-19T02:42:43.861Z,90.32
2023-02-19T02:47:56.517Z,90.68
2023-02-19T02:53:35.820Z,90.43
2023-02-19T02:58:45.689Z,89.72
2023-02-19T03:03:55.142Z,89.55
2023-02-19T03:09:09.540Z,89.50
2023-02-19T03:14:44.679Z,89.68
2023-02-19T03:19:52.911Z,89.42
2023-02-19T03:25:25.914Z,89.43
2023-02-19T03:30:33.890Z,89.31
2023-02-19T03:35:50.045Z,89.09
2023-02-19T03:41:14.558Z,89.03
2023-02-19T03:46:24.088Z,89.28
2023-02-19T03:51:45.147Z,89.39
2023-02-19T03:57:05.298Z,89.75
2023-02-19T04:02:37.145Z,89.71
2023-02-19T04:07:44.651Z,89.50
2023-02-19T04:13:00.193Z,89.31
2023-02-19T04:18:08.648Z,89.31
2023-02-19T04:23:16.912Z,89.22
2023-02-19T04:28:19.495Z,89.17
2023-02-19T04:33:22.104Z,89.37
2023-02-19T04:38:24.473Z,89.34
2023-02-19T04:43:29.742Z,89.23
2023-02-19T04:48:32.673Z,89.30
2023-02-19T04:53:36.437Z,89.44
2023-02-19T04:58:39.109Z,89.49
2023-02-19T05:03:41.732Z,89.56
2023-02-19T05:08:44.428Z,89.61
2023-02-19T05:13:46.619Z,89.93
2023-02-19T05:18:48.980Z,90.21
2023-02-19T05:23:51.253Z,90.50
2023-02-19T05:28:54.463Z,90.04
2023-02-19T05:33:56.958Z,89.63
2023-02-19T05:38:58.984Z,89.47
2023-02-19T05:44:01.405Z,89.60
2023-02-19T05:49:04.299Z,89.96
2023-02-19T05:54:06.347Z,90.30
2023-02-19T05:59:15.184Z,90.80
2023-02-19T06:04:19.275Z,91.05
2023-02-19T06:09:21.519Z,91.28
2023-02-19T06:14:23.597Z,91.10
2023-02-19T06:19:26.158Z,90.86
2023-02-19T06:24:28.247Z,90.62
2023-02-19T06:29:32.621Z,89.87
2023-02-19T06:34:36.234Z,89.72
2023-02-19T06:39:38.498Z,89.53
2023-02-19T06:44:41.716Z,89.52
2023-02-19T06:49:45.092Z,89.85
2023-02-19T06:54:47.506Z,90.21
2023-02-19T06:59:50.490Z,90.00
2023-02-19T07:04:52.698Z,89.59
2023-02-19T07:09:56.500Z,89.70
2023-02-19T07:15:01.644Z,89.78
2023-02-19T07:20:04.313Z,89.84
2023-02-19T07:25:07.098Z,89.95
2023-02-19T07:30:10.602Z,90.17
2023-02-19T07:35:13.174Z,89.75
2023-02-19T07:40:15.215Z,89.62
2023-02-19T07:45:17.903Z,89.71
2023-02-19T07:50:20.367Z,89.72
2023-02-19T07:55:25.342Z,89.74
2023-02-19T08:00:29.656Z,89.77
2023-02-19T08:05:38.504Z,89.84
2023-02-19T08:11:00.533Z,89.87
2023-02-19T08:16:15.982Z,89.85
2023-02-19T08:21:21.190Z,90.07
2023-02-19T08:26:23.841Z,90.09
2023-02-19T08:31:27.259Z,90.15
2023-02-19T08:36:30.407Z,89.65
2023-02-19T08:41:32.897Z,90.05
2023-02-19T08:46:35.046Z,90.76
2023-02-19T08:51:42.120Z,90.93
2023-02-19T08:56:44.511Z,90.85
2023-02-19T09:01:46.840Z,90.31
2023-02-19T09:06:49.210Z,90.62
2023-02-19T09:11:51.189Z,90.89
2023-02-19T09:16:53.644Z,90.94
2023-02-19T09:21:56.116Z,90.54
2023-02-19T09:27:01.100Z,89.92
2023-02-19T09:32:05.789Z,89.33
2023-02-19T09:37:08.663Z,88.95
2023-02-19T09:42:18.004Z,89.17
2023-02-19T09:47:29.556Z,90.32
2023-02-19T09:52:38.827Z,90.84
2023-02-19T09:57:43.630Z,90.66
2023-02-19T10:02:45.893Z,91.00
2023-02-19T10:07:51.287Z,91.14
2023-02-19T10:12:56.797Z,91.62
2023-02-19T10:17:59.044Z,91.89
2023-02-19T10:23:08.054Z,91.97
2023-02-19T10:28:23.337Z,91.11
2023-02-19T10:33:25.739Z,91.09
2023-02-19T10:38:38.412Z,90.89
2023-02-19T10:43:45.797Z,91.09
2023-02-19T10:49:00.621Z,91.19
2023-02-19T10:54:28.866Z,91.09
2023-02-19T10:59:58.238Z,91.55
2023-02-19T11:05:16.912Z,91.81
2023-02-19T11:10:39.959Z,91.68
2023-02-19T11:15:43.683Z,90.48
2023-02-19T11:21:00.972Z,90.94
2023-02-19T11:26:06.969Z,90.61
2023-02-19T11:31:23.557Z,90.24
2023-02-19T11:36:30.487Z,90.56
2023-02-19T11:41:58.562Z,90.35
2023-02-19T11:47:13.292Z,91.05
2023-02-19T11:52:29.057Z,91.04
2023-02-19T11:57:41.855Z,90.74
2023-02-19T12:03:06.400Z,90.96
2023-02-19T12:08:35.768Z,90.69
2023-02-19T12:13:59.438Z,90.77
2023-02-19T12:19:27.681Z,91.07
2023-02-19T12:25:06.252Z,90.78
2023-02-19T12:30:19.426Z,90.17
2023-02-19T12:35:43.182Z,90.72
2023-02-19T12:40:51.262Z,90.38
2023-02-19T12:45:58.999Z,89.91
2023-02-19T12:51:23.414Z,89.85
2023-02-19T12:56:53.705Z,90.09
2023-02-19T13:02:08.107Z,90.07
2023-02-19T13:07:33.777Z,89.99
2023-02-19T13:12:44.901Z,90.36
2023-02-19T13:17:51.404Z,89.73
2023-02-19T13:23:41.022Z,89.76
2023-02-19T13:29:06.913Z,88.96
2023-02-19T13:34:22.641Z,88.43
2023-02-19T13:39:25.327Z,89.14
2023-02-19T13:44:31.058Z,89.37
2023-02-19T13:49:36.185Z,89.99
2023-02-19T13:54:42.652Z,90.32
2023-02-19T13:59:45.411Z,90.53
2023-02-19T14:04:51.844Z,90.73
2023-02-19T14:09:55.005Z,90.82
2023-02-19T14:15:41.593Z,91.30
2023-02-19T14:20:45.545Z,90.99
2023-02-19T14:26:01.286Z,90.28
2023-02-19T14:31:11.959Z,89.26
2023-02-19T14:36:20.483Z,88.50
2023-02-19T14:41:24.760Z,87.49
2023-02-19T14:46:43.318Z,87.15
2023-02-19T14:51:51.635Z,87.00
2023-02-19T14:56:54.826Z,86.02
2023-02-19T15:02:15.299Z,85.50
2023-02-19T15:07:34.751Z,87.72
2023-02-19T15:13:01.523Z,86.84
2023-02-19T15:18:05.612Z,87.65
2023-02-19T15:23:08.260Z,87.86
2023-02-19T15:28:26.541Z,86.94
2023-02-19T15:33:29.566Z,86.58
2023-02-19T15:38:33.890Z,86.59
2023-02-19T15:43:49.912Z,86.27
2023-02-19T15:49:02.454Z,86.09
2023-02-19T15:54:47.391Z,86.32
2023-02-19T16:00:13.464Z,86.41
2023-02-19T16:05:27.572Z,86.63
2023-02-19T16:10:32.695Z,86.50
2023-02-19T16:15:40.386Z,86.77
2023-02-19T16:20:47.881Z,86.70
2023-02-19T16:26:01.519Z,87.40
2023-02-19T16:31:05.106Z,88.40
2023-02-19T16:36:42.541Z,88.79
2023-02-19T16:41:47.554Z,88.22
2023-02-19T16:46:52.211Z,88.01
2023-02-19T16:51:54.687Z,87.37
2023-02-19T16:56:56.870Z,87.89
2023-02-19T17:02:05.590Z,87.55
2023-02-19T17:07:09.527Z,87.99
2023-02-19T17:12:14.396Z,87.73
2023-02-19T17:17:16.468Z,88.55
2023-02-19T17:22:19.236Z,89.48
2023-02-19T17:27:21.557Z,90.01
2023-02-19T17:32:23.608Z,89.49
2023-02-19T17:37:26.490Z,89.64
2023-02-19T17:42:28.272Z,90.39
2023-02-19T17:47:30.530Z,89.24
2023-02-19T17:52:33.672Z,88.88
2023-02-19T17:57:36.550Z,88.72
2023-02-19T18:02:39.429Z,89.53
2023-02-19T18:07:51.380Z,90.28
2023-02-19T18:12:55.945Z,90.41
2023-02-19T18:18:00.939Z,91.01
2023-02-19T18:23:02.990Z,91.39
2023-02-19T18:28:05.475Z,91.62
2023-02-19T18:33:10.894Z,91.42
2023-02-19T18:38:13.721Z,91.73
2023-02-19T18:43:16.820Z,92.11
2023-02-19T18:48:19.410Z,92.31
2023-02-19T18:53:22.105Z,92.19
2023-02-19T18:58:28.493Z,92.13
2023-02-19T19:03:32.445Z,90.64
2023-02-19T19:08:35.132Z,88.51
2023-02-19T19:13:37.917Z,89.56
2023-02-19T19:18:39.878Z,88.79
2023-02-19T19:23:42.617Z,87.17
2023-02-19T19:28:45.317Z,87.54
2023-02-19T19:33:48.584Z,88.63
2023-02-19T19:38:50.853Z,88.02
2023-02-19T19:43:52.861Z,87.30
2023-02-19T19:48:55.914Z,87.58
2023-02-19T19:53:58.419Z,87.28
2023-02-19T19:59:00.285Z,86.28
2023-02-19T20:04:08.363Z,86.16
2023-02-19T20:09:10.571Z,86.04
2023-02-19T20:14:13.965Z,86.37
2023-02-19T20:19:17.790Z,86.36
2023-02-19T20:24:24.598Z,86.22
2023-02-19T20:29:29.057Z,87.98
2023-02-19T20:34:31.719Z,86.13
2023-02-19T20:39:35.464Z,85.80
2023-02-19T20:44:37.840Z,85.40
2023-02-19T20:49:45.754Z,86.11
2023-02-19T20:54:48.225Z,86.43
2023-02-19T20:59:50.688Z,88.71
2023-02-19T21:04:52.723Z,90.19
2023-02-19T21:09:57.803Z,90.89
2023-02-19T21:15:05.230Z,91.14
2023-02-19T21:20:08.479Z,91.28
2023-02-19T21:25:10.850Z,91.50
2023-02-19T21:30:12.955Z,92.09
2023-02-19T21:35:15.279Z,92.32
2023-02-19T21:40:39.255Z,92.24
2023-02-19T21:45:43.132Z,92.54
2023-02-19T21:50:45.927Z,92.73
2023-02-19T21:55:58.139Z,92.63
2023-02-19T22:01:01.791Z,92.71
2023-02-19T22:06:04.907Z,92.77
2023-02-19T22:11:07.403Z,92.32
2023-02-19T22:16:09.904Z,92.35
2023-02-19T22:21:12.310Z,92.58
2023-02-19T22:26:18.737Z,92.64
2023-02-19T22:31:25.021Z,92.80
2023-02-19T22:36:31.172Z,92.81
2023-02-19T22:41:33.893Z,93.06
2023-02-19T22:46:36.429Z,93.03
2023-02-19T22:51:39.143Z,92.93
2023-02-19T22:56:41.594Z,92.85
2023-02-19T23:01:43.539Z,92.94
2023-02-19T23:06:45.955Z,93.17
2023-02-19T23:11:48.496Z,93.20
2023-02-19T23:16:50.783Z,93.25
2023-02-19T23:22:07.777Z,93.00
2023-02-19T23:27:10.195Z,93.00
2023-02-19T23:32:12.524Z,92.98
2023-02-19T23:37:15.123Z,93.13
2023-02-19T23:42:20.372Z,93.31
2023-02-19T23:47:45.676Z,93.23
2023-02-19T23:52:48.963Z,93.34
2023-02-19T23:57:53.256Z,92.65
